QFA444 YMML-YSSY
Flight info
| Callsign | QFA444 |
|---|---|
| Flight time | N/A |
| Altitude | 39000 |
| Route | DOSEL2/27 DOSEL Y59 RIVET |
| Aircraft | A333/H-SDE2E3FGHIJ3J4J5M1RWXY/LB1D1 |
Departure
| Time | 2026-05-06 10:21 |
|---|---|
| Airport | Melbourne Airport (YMML) |
Arrival
| Time | N/A |
|---|---|
| Airport | Sydney Kingsford Smith International Airport (YSSY) |
| Time | Latitude | Longitude | Altitude | Speed | Heading |
|---|---|---|---|---|---|
| 2026-05-06 10:03 | -38.02747 | 144.47418 | 40 ft | 0 kts | 7° |
| 2026-05-06 10:06 | -38.02750 | 144.47418 | 40 ft | 2 kts | 7° |
| 2026-05-06 10:07 | -38.02766 | 144.47415 | 40 ft | 2 kts | 7° |
| 2026-05-06 10:07 | -38.02787 | 144.47412 | 38 ft | 2 kts | 7° |
| 2026-05-06 10:07 | -38.02799 | 144.47410 | 37 ft | 2 kts | 328° |
| 2026-05-06 10:07 | -38.02809 | 144.47420 | 39 ft | 1 kts | 281° |
| 2026-05-06 10:14 | -38.02809 | 144.47417 | 40 ft | 1 kts | 281° |
| 2026-05-06 10:14 | -38.02807 | 144.47408 | 40 ft | 1 kts | 281° |
| 2026-05-06 10:14 | -38.02807 | 144.47403 | 40 ft | 0 kts | 281° |
| 2026-05-06 10:15 | -38.02806 | 144.47399 | 40 ft | 1 kts | 281° |
| 2026-05-06 10:15 | -38.02805 | 144.47390 | 40 ft | 1 kts | 281° |
| 2026-05-06 10:15 | -38.02803 | 144.47378 | 40 ft | 2 kts | 281° |
| 2026-05-06 10:15 | -38.02800 | 144.47363 | 40 ft | 2 kts | 281° |
| 2026-05-06 10:16 | -38.02799 | 144.47358 | 40 ft | 0 kts | 281° |
| 2026-05-06 10:16 | -38.02799 | 144.47356 | 40 ft | 1 kts | 281° |
| 2026-05-06 10:16 | -38.02789 | 144.47300 | 40 ft | 14 kts | 285° |
| 2026-05-06 10:16 | -38.02760 | 144.47178 | 39 ft | 14 kts | 286° |
| 2026-05-06 10:17 | -38.02741 | 144.47053 | 39 ft | 15 kts | 277° |
| 2026-05-06 10:17 | -38.02741 | 144.46978 | 37 ft | 6 kts | 257° |
| 2026-05-06 10:17 | -38.02752 | 144.46957 | 37 ft | 3 kts | 227° |
| 2026-05-06 10:17 | -38.02780 | 144.46938 | 37 ft | 13 kts | 201° |
| 2026-05-06 10:18 | -38.03021 | 144.46871 | 40 ft | 62 kts | 189° |
| 2026-05-06 10:18 | -38.03618 | 144.46787 | 41 ft | 110 kts | 187° |
| 2026-05-06 10:18 | -38.04520 | 144.46642 | 43 ft | 150 kts | 187° |
| 2026-05-06 10:18 | -38.05591 | 144.46515 | 469 ft | 154 kts | 186° |
| 2026-05-06 10:19 | -38.06711 | 144.46446 | 907 ft | 167 kts | 186° |
| 2026-05-06 10:19 | -38.07804 | 144.46993 | 1475 ft | 186 kts | 142° |
| 2026-05-06 10:19 | -38.08341 | 144.48594 | 1887 ft | 215 kts | 95° |
| 2026-05-06 10:19 | -38.07853 | 144.50475 | 2184 ft | 239 kts | 49° |
| 2026-05-06 10:20 | -38.06448 | 144.51662 | 2586 ft | 249 kts | 8° |
| 2026-05-06 10:20 | -38.04741 | 144.52092 | 3310 ft | 254 kts | 3° |
| 2026-05-06 10:20 | -38.02992 | 144.52602 | 4128 ft | 260 kts | 9° |
| 2026-05-06 10:20 | -38.01278 | 144.53279 | 5031 ft | 263 kts | 13° |
| 2026-05-06 10:21 | -37.99533 | 144.54085 | 5684 ft | 264 kts | 15° |
| 2026-05-06 10:21 | -37.97826 | 144.54940 | 5966 ft | 263 kts | 16° |
| 2026-05-06 10:21 | -37.96159 | 144.55811 | 5998 ft | 262 kts | 17° |
| 2026-05-06 10:21 | -37.94478 | 144.56713 | 5997 ft | 263 kts | 18° |
| 2026-05-06 10:22 | -37.92882 | 144.57890 | 5998 ft | 271 kts | 33° |
| 2026-05-06 10:22 | -37.91382 | 144.59475 | 5981 ft | 289 kts | 37° |
| 2026-05-06 10:22 | -37.89869 | 144.61184 | 5997 ft | 293 kts | 38° |
| 2026-05-06 10:22 | -37.88352 | 144.62907 | 6003 ft | 293 kts | 38° |
| 2026-05-06 10:23 | -37.86835 | 144.64623 | 5999 ft | 292 kts | 38° |
| 2026-05-06 10:23 | -37.85320 | 144.66332 | 5997 ft | 291 kts | 38° |
| 2026-05-06 10:23 | -37.83807 | 144.68033 | 5999 ft | 291 kts | 38° |
| 2026-05-06 10:23 | -37.82292 | 144.69734 | 5993 ft | 291 kts | 38° |
| 2026-05-06 10:24 | -37.80777 | 144.71430 | 6001 ft | 291 kts | 37° |
| 2026-05-06 10:24 | -37.79264 | 144.73115 | 5996 ft | 291 kts | 38° |
| 2026-05-06 10:24 | -37.77746 | 144.74817 | 5996 ft | 291 kts | 38° |
| 2026-05-06 10:24 | -37.76233 | 144.76524 | 5896 ft | 292 kts | 39° |
| 2026-05-06 10:25 | -37.74946 | 144.78496 | 5690 ft | 295 kts | 59° |
| 2026-05-06 10:25 | -37.74339 | 144.80952 | 5444 ft | 295 kts | 86° |
| 2026-05-06 10:25 | -37.74383 | 144.83522 | 5301 ft | 292 kts | 96° |
| 2026-05-06 10:25 | -37.74545 | 144.86091 | 5206 ft | 294 kts | 96° |
| 2026-05-06 10:26 | -37.74708 | 144.88634 | 5098 ft | 287 kts | 96° |
| 2026-05-06 10:26 | -37.74862 | 144.91140 | 4914 ft | 285 kts | 96° |
| 2026-05-06 10:26 | -37.75008 | 144.93644 | 4629 ft | 286 kts | 96° |
| 2026-05-06 10:26 | -37.75152 | 144.96156 | 4339 ft | 287 kts | 96° |
| 2026-05-06 10:27 | -37.75237 | 144.98651 | 4148 ft | 282 kts | 89° |
| 2026-05-06 10:27 | -37.74614 | 145.00945 | 4021 ft | 274 kts | 51° |
| 2026-05-06 10:27 | -37.73185 | 145.02347 | 3905 ft | 253 kts | 13° |
| 2026-05-06 10:27 | -37.71518 | 145.02634 | 3800 ft | 235 kts | 353° |
| 2026-05-06 10:28 | -37.69913 | 145.02649 | 3694 ft | 227 kts | 353° |
| 2026-05-06 10:28 | -37.68406 | 145.02415 | 3575 ft | 209 kts | 331° |
| 2026-05-06 10:28 | -37.67355 | 145.01369 | 3475 ft | 181 kts | 295° |
| 2026-05-06 10:28 | -37.67002 | 144.99984 | 3306 ft | 156 kts | 271° |
| 2026-05-06 10:29 | -37.66928 | 144.98700 | 3148 ft | 138 kts | 267° |
| 2026-05-06 10:29 | -37.66881 | 144.97535 | 2873 ft | 130 kts | 267° |
| 2026-05-06 10:29 | -37.66865 | 144.96408 | 2558 ft | 126 kts | 262° |
| 2026-05-06 10:29 | -37.66825 | 144.95302 | 2233 ft | 127 kts | 270° |
| 2026-05-06 10:30 | -37.66752 | 144.94210 | 1987 ft | 125 kts | 268° |
| 2026-05-06 10:30 | -37.66692 | 144.93080 | 1795 ft | 133 kts | 268° |
| 2026-05-06 10:30 | -37.66631 | 144.91900 | 1593 ft | 135 kts | 269° |
| 2026-05-06 10:30 | -37.66565 | 144.90723 | 1397 ft | 135 kts | 269° |
| 2026-05-06 10:31 | -37.66500 | 144.89565 | 1200 ft | 130 kts | 270° |
| 2026-05-06 10:31 | -37.66434 | 144.88418 | 1039 ft | 131 kts | 269° |
| 2026-05-06 10:31 | -37.66367 | 144.87260 | 852 ft | 132 kts | 269° |
| 2026-05-06 10:31 | -37.66296 | 144.86114 | 652 ft | 129 kts | 265° |
| 2026-05-06 10:32 | -37.66222 | 144.84999 | 479 ft | 124 kts | 265° |
| 2026-05-06 10:32 | -37.66178 | 144.83981 | 414 ft | 91 kts | 274° |
| 2026-05-06 10:32 | -37.66150 | 144.83510 | 416 ft | 35 kts | 273° |
| 2026-05-06 10:32 | -37.66139 | 144.83243 | 411 ft | 28 kts | 275° |
| 2026-05-06 10:33 | -37.66148 | 144.83010 | 411 ft | 26 kts | 258° |
| 2026-05-06 10:33 | -37.66221 | 144.82800 | 404 ft | 27 kts | 243° |
| 2026-05-06 10:33 | -37.66354 | 144.82671 | 394 ft | 23 kts | 178° |
| 2026-05-06 10:33 | -37.66447 | 144.82798 | 389 ft | 22 kts | 96° |
| 2026-05-06 10:34 | -37.66458 | 144.82987 | 393 ft | 21 kts | 95° |
| 2026-05-06 10:34 | -37.66467 | 144.83160 | 401 ft | 18 kts | 94° |
| 2026-05-06 10:34 | -37.66477 | 144.83314 | 404 ft | 17 kts | 94° |
| 2026-05-06 10:34 | -37.66485 | 144.83462 | 408 ft | 17 kts | 94° |
| 2026-05-06 10:35 | -37.66489 | 144.83544 | 406 ft | 0 kts | 93° |